Time;durP1;ratioP1;P1;durP2;ratioP2;P2;SDS_P1;SDS_P2;PMS_P1;PMS_P2;Temp;Humidity;BMP_temperature;BMP_pressure;BME280_temperature;BME280_humidity;BME280_pressure;Samples;Min_cycle;Max_cycle;Signal;HPM_P1;HPM_P2
2023/08/06 00:01:51;;;;;;;;;;;22.10;99.90;;;;;;5136314;27;20262;-75
2023/08/06 00:04:17;;;;;;;;;;;22.00;99.90;;;;;;5135966;27;20304;-75
2023/08/06 00:06:43;;;;;;;;;;;22.10;99.90;;;;;;5135959;27;20418;-74
2023/08/06 00:09:09;;;;;;;;;;;22.10;99.90;;;;;;5135762;27;19903;-74
2023/08/06 00:11:34;;;;;;;;;;;22.00;99.90;;;;;;5134200;27;20256;-74
2023/08/06 00:14:00;;;;;;;;;;;22.00;99.90;;;;;;5136147;27;19939;-74
2023/08/06 00:16:26;;;;;;;;;;;22.00;99.90;;;;;;5135843;27;20346;-74
2023/08/06 00:18:52;;;;;;;;;;;22.00;99.90;;;;;;5135837;27;19907;-75
2023/08/06 00:21:17;;;;;;;;;;;22.00;99.90;;;;;;5133342;27;20245;-75
2023/08/06 00:23:43;;;;;;;;;;;22.00;99.90;;;;;;5135196;27;19942;-74
2023/08/06 00:26:09;;;;;;;;;;;22.00;99.90;;;;;;5133909;27;19910;-75
2023/08/06 00:28:35;;;;;;;;;;;22.10;99.90;;;;;;5135404;27;19904;-75
2023/08/06 00:31:01;;;;;;;;;;;22.00;99.90;;;;;;5135365;27;19911;-75
2023/08/06 00:33:26;;;;;;;;;;;21.90;99.90;;;;;;5135773;27;19903;-75
2023/08/06 00:35:52;;;;;;;;;;;21.90;99.90;;;;;;5134950;27;19919;-75
2023/08/06 00:38:18;;;;;;;;;;;21.90;99.90;;;;;;5135364;27;19907;-75
2023/08/06 00:40:44;;;;;;;;;;;22.00;99.90;;;;;;5135169;27;20382;-74
2023/08/06 00:43:10;;;;;;;;;;;21.90;99.90;;;;;;5135076;27;19990;-74
2023/08/06 00:45:37;;;;;;;;;;;21.90;99.90;;;;;;5135467;27;20423;-75
2023/08/06 00:48:04;;;;;;;;;;;22.00;99.90;;;;;;5133599;27;20252;-74
2023/08/06 00:50:30;;;;;;;;;;;21.90;99.90;;;;;;5135197;27;19904;-75
2023/08/06 00:52:56;;;;;;;;;;;21.90;99.90;;;;;;5134956;27;20267;-75
2023/08/06 00:55:22;;;;;;;;;;;22.00;99.90;;;;;;5134598;27;19954;-74
2023/08/06 00:57:48;;;;;;;;;;;22.00;99.90;;;;;;5135218;27;20381;-74
2023/08/06 01:00:14;;;;;;;;;;;22.00;99.90;;;;;;5134962;27;19904;-76
2023/08/06 01:02:39;;;;;;;;;;;21.90;99.90;;;;;;5133444;27;19910;-75
2023/08/06 01:05:05;;;;;;;;;;;21.90;99.90;;;;;;5134959;27;19903;-75
2023/08/06 01:07:44;;;;;;;;;;;21.90;99.90;;;;;;5134668;27;20270;-74
2023/08/06 01:10:16;;;;;;;;;;;21.90;99.90;;;;;;5133119;27;19948;-75
2023/08/06 01:12:48;;;;;;;;;;;21.90;99.90;;;;;;5133162;27;20312;-75
2023/08/06 01:15:22;;;;;;;;;;;21.90;99.90;;;;;;5135019;27;19903;-75
2023/08/06 01:17:48;;;;;;;;;;;21.90;99.90;;;;;;5134442;27;20397;-74
2023/08/06 01:20:14;;;;;;;;;;;21.80;99.90;;;;;;5134735;27;19997;-75
2023/08/06 01:22:39;;;;;;;;;;;21.70;99.90;;;;;;5134360;27;20002;-76
2023/08/06 01:25:06;;;;;;;;;;;21.70;99.90;;;;;;5135263;27;19910;-75
2023/08/06 01:27:40;;;;;;;;;;;21.80;99.90;;;;;;5134235;27;20009;-75
2023/08/06 01:30:15;;;;;;;;;;;21.80;99.90;;;;;;5134121;27;19917;-75
2023/08/06 01:32:43;;;;;;;;;;;21.70;99.90;;;;;;5134490;27;19903;-75
2023/08/06 01:35:10;;;;;;;;;;;21.60;99.90;;;;;;5133991;27;19926;-75
2023/08/06 01:37:36;;;;;;;;;;;21.50;99.90;;;;;;5134559;27;20367;-75
2023/08/06 01:40:05;;;;;;;;;;;21.50;99.90;;;;;;5134194;27;19997;-75
2023/08/06 01:42:31;;;;;;;;;;;21.50;99.90;;;;;;5133893;27;19903;-75
2023/08/06 01:44:57;;;;;;;;;;;21.60;99.90;;;;;;5134494;27;19903;-75
2023/08/06 01:47:23;;;;;;;;;;;21.70;99.90;;;;;;5133984;27;19914;-75
2023/08/06 01:49:48;;;;;;;;;;;21.70;99.90;;;;;;5132575;27;19903;-75
2023/08/06 01:52:14;;;;;;;;;;;21.70;99.90;;;;;;5134204;27;19903;-77
2023/08/06 01:54:40;;;;;;;;;;;21.70;99.90;;;;;;5134379;27;19910;-74
2023/08/06 01:57:06;;;;;;;;;;;21.80;99.90;;;;;;5132223;27;20359;-75
2023/08/06 01:59:32;;;;;;;;;;;21.80;99.90;;;;;;5134298;27;20241;-75
2023/08/06 02:01:57;;;;;;;;;;;21.90;99.90;;;;;;5133828;27;20317;-75
2023/08/06 02:04:23;;;;;;;;;;;21.90;99.90;;;;;;5134195;27;19903;-75
2023/08/06 02:06:49;;;;;;;;;;;21.80;99.90;;;;;;5133707;27;20339;-76
2023/08/06 02:09:15;;;;;;;;;;;21.70;99.90;;;;;;5132599;27;19950;-74
2023/08/06 02:11:40;;;;;;;;;;;21.50;99.90;;;;;;5133925;28;20324;-75
2023/08/06 02:14:06;;;;;;;;;;;21.50;99.90;;;;;;5132228;28;19929;-76
2023/08/06 02:16:32;;;;;;;;;;;21.50;99.90;;;;;;5133526;28;20223;-76
2023/08/06 02:18:58;;;;;;;;;;;21.60;99.90;;;;;;5133590;27;19994;-75
2023/08/06 02:21:23;;;;;;;;;;;21.50;99.90;;;;;;5133575;27;20320;-75
2023/08/06 02:23:49;;;;;;;;;;;21.60;99.90;;;;;;5134022;27;19915;-75
2023/08/06 02:26:15;;;;;;;;;;;21.60;99.90;;;;;;5132000;28;19903;-75
2023/08/06 02:28:41;;;;;;;;;;;21.60;99.90;;;;;;5133747;27;19956;-75
2023/08/06 02:31:07;;;;;;;;;;;21.60;99.90;;;;;;5133473;27;19910;-75
2023/08/06 02:33:32;;;;;;;;;;;21.60;99.90;;;;;;5133948;28;19908;-75
2023/08/06 02:36:00;;;;;;;;;;;21.70;99.90;;;;;;5133301;27;19915;-75
2023/08/06 02:38:25;;;;;;;;;;;21.70;99.90;;;;;;5133493;27;19911;-75
2023/08/06 02:40:51;;;;;;;;;;;21.70;99.90;;;;;;5133620;28;20374;-75
2023/08/06 02:43:17;;;;;;;;;;;21.70;99.90;;;;;;5133975;28;19954;-75
2023/08/06 02:45:46;;;;;;;;;;;21.70;99.90;;;;;;5135593;27;19914;-75
2023/08/06 02:48:12;;;;;;;;;;;21.70;99.90;;;;;;5137386;27;19910;-75
2023/08/06 02:50:40;;;;;;;;;;;21.70;99.90;;;;;;5137493;27;19907;-75
2023/08/06 02:53:06;;;;;;;;;;;21.50;99.90;;;;;;5137282;27;19903;-75
2023/08/06 02:55:33;;;;;;;;;;;21.40;99.90;;;;;;5135540;27;20442;-75
2023/08/06 02:58:00;;;;;;;;;;;21.30;99.90;;;;;;5137292;27;20378;-75
2023/08/06 03:00:26;;;;;;;;;;;21.20;99.90;;;;;;5137391;27;19903;-76
2023/08/06 03:02:52;;;;;;;;;;;21.20;99.90;;;;;;5135733;27;19904;-75
2023/08/06 03:05:18;;;;;;;;;;;21.20;99.90;;;;;;5137282;27;20362;-75
2023/08/06 03:07:44;;;;;;;;;;;21.10;99.90;;;;;;5137003;27;19903;-75
2023/08/06 03:10:10;;;;;;;;;;;21.00;99.90;;;;;;5136999;27;19987;-75
2023/08/06 03:12:35;;;;;;;;;;;21.10;99.90;;;;;;5136864;27;19903;-75
2023/08/06 03:15:01;;;;;;;;;;;21.10;99.90;;;;;;5137160;27;19904;-75
2023/08/06 03:17:27;;;;;;;;;;;21.20;99.90;;;;;;5135747;27;19912;-75
2023/08/06 03:19:53;;;;;;;;;;;21.20;99.90;;;;;;5135357;27;19998;-75
2023/08/06 03:22:18;;;;;;;;;;;21.20;99.90;;;;;;5135309;27;19914;-75
2023/08/06 03:24:44;;;;;;;;;;;21.20;99.90;;;;;;5136640;27;19964;-75
2023/08/06 03:27:10;;;;;;;;;;;21.30;99.90;;;;;;5136624;27;19999;-74
2023/08/06 03:29:36;;;;;;;;;;;21.40;99.90;;;;;;5136667;27;19904;-75
2023/08/06 03:32:01;;;;;;;;;;;21.40;99.90;;;;;;5136539;27;20389;-75
2023/08/06 03:34:28;;;;;;;;;;;21.50;99.90;;;;;;5136485;27;19910;-75
2023/08/06 03:36:53;;;;;;;;;;;21.50;99.90;;;;;;5134764;27;20002;-75
2023/08/06 03:39:19;;;;;;;;;;;21.50;99.90;;;;;;5135114;27;19903;-75
2023/08/06 03:41:45;;;;;;;;;;;21.50;99.90;;;;;;5136236;27;20282;-75
2023/08/06 03:44:11;;;;;;;;;;;21.50;99.90;;;;;;5134966;27;19957;-75
2023/08/06 03:46:36;;;;;;;;;;;21.50;99.90;;;;;;5136683;27;20363;-74
2023/08/06 03:49:02;;;;;;;;;;;21.50;99.90;;;;;;5136151;27;19973;-75
2023/08/06 03:51:28;;;;;;;;;;;21.60;99.90;;;;;;5136499;27;19903;-74
2023/08/06 03:54:00;;;;;;;;;;;21.60;99.90;;;;;;5136550;27;20224;-75
2023/08/06 03:56:26;;;;;;;;;;;21.50;99.90;;;;;;5135983;27;19908;-75
2023/08/06 03:58:52;;;;;;;;;;;21.60;99.90;;;;;;5136161;27;19918;-74
2023/08/06 04:01:18;;;;;;;;;;;21.50;99.90;;;;;;5136118;27;19903;-74
2023/08/06 04:03:43;;;;;;;;;;;21.40;99.90;;;;;;5136426;27;20390;-74
2023/08/06 04:06:09;;;;;;;;;;;21.40;99.90;;;;;;5135938;27;19951;-75
2023/08/06 04:08:35;;;;;;;;;;;21.50;99.90;;;;;;5135776;27;20308;-75
2023/08/06 04:11:01;;;;;;;;;;;21.40;99.90;;;;;;5135687;27;19911;-75
2023/08/06 04:13:27;;;;;;;;;;;21.30;99.90;;;;;;5135760;27;19948;-75
2023/08/06 04:15:53;;;;;;;;;;;21.20;99.90;;;;;;5136062;27;20347;-75
2023/08/06 04:18:19;;;;;;;;;;;21.20;99.90;;;;;;5135544;27;19903;-74
2023/08/06 04:20:45;;;;;;;;;;;21.20;99.90;;;;;;5135697;27;19903;-74
2023/08/06 04:23:11;;;;;;;;;;;21.20;99.90;;;;;;5135527;27;19903;-75
2023/08/06 04:25:37;;;;;;;;;;;21.10;99.90;;;;;;5135360;27;20271;-75
2023/08/06 04:28:03;;;;;;;;;;;21.20;99.90;;;;;;5135894;27;19907;-74
2023/08/06 04:30:29;;;;;;;;;;;21.20;99.90;;;;;;5134076;27;19904;-75
2023/08/06 04:32:56;;;;;;;;;;;21.20;99.90;;;;;;5135344;27;19910;-75
2023/08/06 04:35:22;;;;;;;;;;;21.20;99.90;;;;;;5135626;27;19904;-75
2023/08/06 04:37:47;;;;;;;;;;;21.30;99.90;;;;;;5135612;27;19921;-75
2023/08/06 04:40:13;;;;;;;;;;;21.40;99.90;;;;;;5135292;27;19903;-75
2023/08/06 04:42:39;;;;;;;;;;;21.30;99.90;;;;;;5135063;27;20274;-75
2023/08/06 04:45:05;;;;;;;;;;;21.40;99.90;;;;;;5133736;27;19910;-75
2023/08/06 04:47:31;;;;;;;;;;;21.40;99.90;;;;;;5135124;27;20002;-76
2023/08/06 04:49:57;;;;;;;;;;;21.60;99.90;;;;;;5135602;27;20331;-75
2023/08/06 04:52:23;;;;;;;;;;;21.60;99.90;;;;;;5135077;27;19932;-74
2023/08/06 04:54:48;;;;;;;;;;;21.60;99.90;;;;;;5133645;27;19904;-75
2023/08/06 04:57:14;;;;;;;;;;;21.50;99.90;;;;;;5134721;27;20312;-75
2023/08/06 04:59:40;;;;;;;;;;;21.60;99.90;;;;;;5135354;27;19904;-75
2023/08/06 05:02:06;;;;;;;;;;;21.60;99.90;;;;;;5135133;27;20343;-74
2023/08/06 05:04:32;;;;;;;;;;;21.50;99.90;;;;;;5134914;27;19910;-75
2023/08/06 05:06:58;;;;;;;;;;;21.50;99.90;;;;;;5133179;27;19911;-74
2023/08/06 05:09:24;;;;;;;;;;;21.50;99.90;;;;;;5132700;27;19903;-75
2023/08/06 05:11:50;;;;;;;;;;;21.50;99.90;;;;;;5134611;27;20396;-74
2023/08/06 05:14:15;;;;;;;;;;;21.60;99.90;;;;;;5134987;27;19903;-75
2023/08/06 05:16:41;;;;;;;;;;;21.70;99.90;;;;;;5134407;27;20355;-74
2023/08/06 05:19:07;;;;;;;;;;;21.80;99.90;;;;;;5134373;27;19994;-75
2023/08/06 05:21:33;;;;;;;;;;;22.00;99.90;;;;;;5134303;27;19914;-75
2023/08/06 05:23:58;;;;;;;;;;;23.10;99.90;;;;;;5134552;27;19949;-75
2023/08/06 05:26:24;;;;;;;;;;;24.20;99.90;;;;;;5134183;27;19903;-75
2023/08/06 05:28:50;;;;;;;;;;;25.20;99.90;;;;;;5134631;27;19998;-75
2023/08/06 05:31:16;;;;;;;;;;;26.00;99.90;;;;;;5134262;27;19904;-75
2023/08/06 05:33:41;;;;;;;;;;;26.80;99.90;;;;;;5134491;27;19903;-75
2023/08/06 05:36:07;;;;;;;;;;;27.50;99.90;;;;;;5132322;27;20009;-75
2023/08/06 05:38:33;;;;;;;;;;;28.00;99.90;;;;;;5134182;27;19956;-76
2023/08/06 05:40:59;;;;;;;;;;;28.30;99.90;;;;;;5134064;27;19910;-76
2023/08/06 05:43:25;;;;;;;;;;;29.10;99.90;;;;;;5134512;27;19904;-76
2023/08/06 05:45:51;;;;;;;;;;;30.00;99.90;;;;;;5133966;27;20250;-76
2023/08/06 05:48:17;;;;;;;;;;;30.50;99.90;;;;;;5134411;27;19910;-76
2023/08/06 05:50:43;;;;;;;;;;;31.10;99.90;;;;;;5134345;27;20342;-76
2023/08/06 05:53:08;;;;;;;;;;;31.70;99.90;;;;;;5134057;27;19910;-76
2023/08/06 05:55:35;;;;;;;;;;;31.80;99.90;;;;;;5134463;27;19923;-76
2023/08/06 05:58:01;;;;;;;;;;;31.10;99.90;;;;;;5132686;27;19910;-76
2023/08/06 06:00:27;;;;;;;;;;;31.40;99.90;;;;;;5134035;27;19903;-76
2023/08/06 06:02:52;;;;;;;;;;;31.90;99.90;;;;;;5133993;27;19910;-76
2023/08/06 06:05:18;;;;;;;;;;;31.90;99.90;;;;;;5133928;27;19903;-76
2023/08/06 06:07:44;;;;;;;;;;;32.70;99.90;;;;;;5133982;27;19903;-75
2023/08/06 06:10:10;;;;;;;;;;;32.10;99.90;;;;;;5134433;27;19956;-76
2023/08/06 06:12:35;;;;;;;;;;;31.80;99.90;;;;;;5133606;27;19960;-77
2023/08/06 06:15:01;;;;;;;;;;;32.80;99.90;;;;;;5132496;28;19956;-76
2023/08/06 06:17:27;;;;;;;;;;;32.80;99.90;;;;;;5133806;27;19912;-76
2023/08/06 06:19:53;;;;;;;;;;;33.40;99.90;;;;;;5134495;27;19947;-76
2023/08/06 06:22:19;;;;;;;;;;;34.10;99.90;;;;;;5138316;27;19910;-76
2023/08/06 06:24:45;;;;;;;;;;;35.30;99.90;;;;;;5137957;27;19907;-76
2023/08/06 06:27:10;;;;;;;;;;;34.70;99.90;;;;;;5137853;27;20343;-76
2023/08/06 06:29:36;;;;;;;;;;;35.40;99.90;;;;;;5137956;27;19903;-76
2023/08/06 06:32:02;;;;;;;;;;;36.90;99.80;;;;;;5138173;27;20275;-76
2023/08/06 06:34:28;;;;;;;;;;;37.70;98.30;;;;;;5137946;27;20009;-76
2023/08/06 06:36:54;;;;;;;;;;;38.20;96.90;;;;;;5137499;27;19987;-77
2023/08/06 06:39:21;;;;;;;;;;;39.10;96.10;;;;;;5137873;27;20010;-77
2023/08/06 06:41:46;;;;;;;;;;;39.50;95.00;;;;;;5137486;27;20291;-77
2023/08/06 06:44:13;;;;;;;;;;;39.80;94.30;;;;;;5137648;27;19903;-77
2023/08/06 06:46:39;;;;;;;;;;;39.40;94.20;;;;;;5137710;27;19903;-76
2023/08/06 06:49:04;;;;;;;;;;;39.80;93.90;;;;;;5137571;27;19914;-76
2023/08/06 06:51:31;;;;;;;;;;;38.70;93.90;;;;;;5137493;27;20248;-76
2023/08/06 06:53:57;;;;;;;;;;;37.40;93.90;;;;;;5138047;27;19950;-76
2023/08/06 06:56:23;;;;;;;;;;;38.20;94.20;;;;;;5137806;27;19977;-75
2023/08/06 06:58:49;;;;;;;;;;;37.00;94.70;;;;;;5137961;27;20365;-76
2023/08/06 07:01:15;;;;;;;;;;;37.90;94.40;;;;;;5137526;27;19917;-75
2023/08/06 07:03:40;;;;;;;;;;;37.60;94.40;;;;;;5137351;27;19911;-76
2023/08/06 07:06:06;;;;;;;;;;;35.80;95.50;;;;;;5137766;27;19909;-75
2023/08/06 07:08:32;;;;;;;;;;;34.80;96.70;;;;;;5137436;27;20427;-75
2023/08/06 07:11:02;;;;;;;;;;;34.60;97.00;;;;;;5135632;27;19952;-77
2023/08/06 07:13:28;;;;;;;;;;;34.10;97.50;;;;;;5136923;27;19911;-75
2023/08/06 07:15:55;;;;;;;;;;;35.80;96.80;;;;;;5137338;27;19907;-75
2023/08/06 07:18:20;;;;;;;;;;;37.00;95.70;;;;;;5136817;27;19907;-75
2023/08/06 07:20:50;;;;;;;;;;;37.10;95.20;;;;;;5136791;27;19910;-74
2023/08/06 07:23:15;;;;;;;;;;;36.60;95.50;;;;;;5135310;27;20423;-75
2023/08/06 07:25:42;;;;;;;;;;;36.00;95.50;;;;;;5135342;27;19947;-76
2023/08/06 07:28:08;;;;;;;;;;;35.20;96.60;;;;;;5136660;27;19903;-76
2023/08/06 07:30:38;;;;;;;;;;;34.90;97.10;;;;;;5136147;27;20271;-76
2023/08/06 07:33:03;;;;;;;;;;;35.00;97.10;;;;;;5135297;27;19911;-75
2023/08/06 07:35:29;;;;;;;;;;;35.20;96.90;;;;;;5136584;27;19972;-76
2023/08/06 07:37:55;;;;;;;;;;;34.90;97.40;;;;;;5136337;27;19915;-76
2023/08/06 07:40:21;;;;;;;;;;;34.70;97.50;;;;;;5136628;27;19957;-76
2023/08/06 07:42:47;;;;;;;;;;;34.50;97.80;;;;;;5136438;27;20351;-76
2023/08/06 07:45:12;;;;;;;;;;;33.40;98.60;;;;;;5136484;27;19907;-75
2023/08/06 07:47:38;;;;;;;;;;;31.90;99.90;;;;;;5136658;27;19903;-76
2023/08/06 07:50:04;;;;;;;;;;;31.70;99.90;;;;;;5136200;27;19904;-74
2023/08/06 07:52:30;;;;;;;;;;;32.20;99.90;;;;;;5136439;27;20005;-76
2023/08/06 07:54:56;;;;;;;;;;;32.60;99.90;;;;;;5136501;27;19903;-75
2023/08/06 07:57:22;;;;;;;;;;;33.10;99.90;;;;;;5135868;27;19915;-76
2023/08/06 07:59:47;;;;;;;;;;;32.90;99.90;;;;;;5136608;27;19903;-75
2023/08/06 08:02:14;;;;;;;;;;;33.10;99.90;;;;;;5135980;27;19949;-75
2023/08/06 08:04:40;;;;;;;;;;;33.20;99.90;;;;;;5136034;27;19956;-75
2023/08/06 08:07:05;;;;;;;;;;;33.20;99.90;;;;;;5136495;27;19903;-75
2023/08/06 08:09:31;;;;;;;;;;;32.90;99.90;;;;;;5135974;27;19903;-76
2023/08/06 08:11:58;;;;;;;;;;;32.80;99.90;;;;;;5136056;27;19969;-75
2023/08/06 08:14:24;;;;;;;;;;;32.90;99.90;;;;;;5135755;27;19904;-76
2023/08/06 08:16:50;;;;;;;;;;;33.10;99.90;;;;;;5135656;27;19911;-76
2023/08/06 08:19:16;;;;;;;;;;;32.90;99.90;;;;;;5135601;27;20220;-76
2023/08/06 08:21:42;;;;;;;;;;;32.70;99.90;;;;;;5134153;27;20320;-76
2023/08/06 08:24:07;;;;;;;;;;;32.60;99.90;;;;;;5135595;27;19903;-76
2023/08/06 08:26:33;;;;;;;;;;;32.50;99.90;;;;;;5136153;27;19907;-76
2023/08/06 08:28:59;;;;;;;;;;;32.50;99.90;;;;;;5135625;27;19926;-75
2023/08/06 08:31:25;;;;;;;;;;;32.70;99.90;;;;;;5135762;27;19933;-76
2023/08/06 08:33:51;;;;;;;;;;;33.10;99.90;;;;;;5134097;27;20367;-76
2023/08/06 08:36:17;;;;;;;;;;;32.70;99.90;;;;;;5135530;27;20014;-76
2023/08/06 08:38:42;;;;;;;;;;;32.70;99.90;;;;;;5135927;27;19903;-77
2023/08/06 08:41:09;;;;;;;;;;;32.60;99.90;;;;;;5135125;27;19957;-76
2023/08/06 08:43:35;;;;;;;;;;;32.80;99.90;;;;;;5134610;27;19961;-75
2023/08/06 08:46:02;;;;;;;;;;;32.00;99.90;;;;;;5135424;27;19904;-75
2023/08/06 08:48:27;;;;;;;;;;;32.60;99.90;;;;;;5135384;27;20449;-76
2023/08/06 08:50:53;;;;;;;;;;;32.10;99.90;;;;;;5135340;27;20007;-75
2023/08/06 08:53:21;;;;;;;;;;;32.40;99.90;;;;;;5135191;27;20282;-74
2023/08/06 08:55:48;;;;;;;;;;;32.30;99.90;;;;;;5134812;27;19907;-75
2023/08/06 08:58:14;;;;;;;;;;;31.90;99.90;;;;;;5134823;27;19972;-74
2023/08/06 09:00:43;;;;;;;;;;;31.90;99.90;;;;;;5133424;27;19942;-75
2023/08/06 09:03:08;;;;;;;;;;;32.20;99.90;;;;;;5133846;27;19903;-76
2023/08/06 09:05:35;;;;;;;;;;;31.30;99.90;;;;;;5135324;27;20319;-75
2023/08/06 09:08:04;;;;;;;;;;;31.70;99.90;;;;;;5135078;27;19903;-75
2023/08/06 09:10:30;;;;;;;;;;;31.70;99.90;;;;;;5133413;27;19903;-75
2023/08/06 09:12:57;;;;;;;;;;;31.40;99.90;;;;;;5134572;27;19990;-75
2023/08/06 09:15:29;;;;;;;;;;;31.80;99.90;;;;;;5133315;27;19911;-75
2023/08/06 09:17:55;;;;;;;;;;;32.00;99.90;;;;;;5133041;27;19911;-75
2023/08/06 09:20:21;;;;;;;;;;;32.30;99.90;;;;;;5134797;27;20039;-75
2023/08/06 09:22:48;;;;;;;;;;;32.00;99.90;;;;;;5134487;27;20294;-75
2023/08/06 09:25:24;;;;;;;;;;;32.00;99.90;;;;;;5134742;27;19914;-74
2023/08/06 09:27:51;;;;;;;;;;;31.90;99.90;;;;;;5134236;27;19956;-74
2023/08/06 09:30:37;;;;;;;;;;;32.00;99.90;;;;;;5134674;27;19904;-75
2023/08/06 09:33:03;;;;;;;;;;;31.60;99.90;;;;;;5133799;27;20062;-74
2023/08/06 09:35:30;;;;;;;;;;;31.40;99.90;;;;;;5134564;27;20355;-75
2023/08/06 09:38:06;;;;;;;;;;;31.60;99.90;;;;;;5134032;27;19915;-74
2023/08/06 09:40:32;;;;;;;;;;;31.60;99.90;;;;;;5134656;27;20351;-75
2023/08/06 09:42:59;;;;;;;;;;;31.70;99.90;;;;;;5133898;27;20355;-74
2023/08/06 09:45:32;;;;;;;;;;;31.40;99.90;;;;;;5134034;27;20398;-74
2023/08/06 09:47:59;;;;;;;;;;;30.90;99.90;;;;;;5134238;27;19904;-75
2023/08/06 09:50:28;;;;;;;;;;;30.90;99.90;;;;;;5134257;27;19910;-75
2023/08/06 09:52:55;;;;;;;;;;;30.70;99.90;;;;;;5133887;27;19907;-74
2023/08/06 09:55:21;;;;;;;;;;;30.60;99.90;;;;;;5134578;27;19903;-73
2023/08/06 09:57:47;;;;;;;;;;;30.50;99.90;;;;;;5133574;27;19934;-75
2023/08/06 10:00:13;;;;;;;;;;;30.40;99.90;;;;;;5133918;27;20324;-74
2023/08/06 10:02:40;;;;;;;;;;;30.50;99.90;;;;;;5134531;27;19903;-74
2023/08/06 10:05:08;;;;;;;;;;;30.50;99.90;;;;;;5133917;27;19908;-76
2023/08/06 10:07:35;;;;;;;;;;;30.30;99.90;;;;;;5132460;27;19911;-74
2023/08/06 10:10:01;;;;;;;;;;;30.30;99.90;;;;;;5132642;27;19903;-74
2023/08/06 10:12:28;;;;;;;;;;;30.30;99.90;;;;;;5133852;27;19947;-75
2023/08/06 10:14:56;;;;;;;;;;;30.00;99.90;;;;;;5133959;27;19914;-75
2023/08/06 10:17:22;;;;;;;;;;;30.00;99.90;;;;;;5133968;27;19912;-73
2023/08/06 10:19:49;;;;;;;;;;;30.10;99.90;;;;;;5133970;27;19903;-75
2023/08/06 10:22:16;;;;;;;;;;;30.20;99.90;;;;;;5133930;27;20018;-75
2023/08/06 10:24:46;;;;;;;;;;;30.20;99.90;;;;;;5133675;27;19904;-74
2023/08/06 10:27:12;;;;;;;;;;;30.10;99.90;;;;;;5133689;27;19903;-75
2023/08/06 10:29:38;;;;;;;;;;;30.20;99.90;;;;;;5133801;27;19964;-74
2023/08/06 10:32:06;;;;;;;;;;;30.00;99.90;;;;;;5133645;27;19908;-74
2023/08/06 10:34:52;;;;;;;;;;;30.30;99.90;;;;;;5133736;27;19903;-75
2023/08/06 10:37:18;;;;;;;;;;;30.20;99.90;;;;;;5132961;28;19922;-74
2023/08/06 10:39:53;;;;;;;;;;;30.00;99.90;;;;;;5133858;27;19919;-74
2023/08/06 10:42:26;;;;;;;;;;;29.70;99.90;;;;;;5133375;27;19904;-74
2023/08/06 10:45:11;;;;;;;;;;;29.90;99.90;;;;;;5134036;27;20309;-73
2023/08/06 10:47:40;;;;;;;;;;;30.00;99.90;;;;;;5132197;28;19978;-74
2023/08/06 10:50:11;;;;;;;;;;;30.00;99.90;;;;;;5132489;28;20241;-75
2023/08/06 10:52:37;;;;;;;;;;;30.00;99.90;;;;;;5133703;27;20367;-74
2023/08/06 10:55:03;;;;;;;;;;;30.10;99.90;;;;;;5132164;28;20352;-75
2023/08/06 10:57:29;;;;;;;;;;;30.10;99.90;;;;;;5133167;27;19917;-75
2023/08/06 10:59:55;;;;;;;;;;;29.90;99.90;;;;;;5133432;28;19903;-75
2023/08/06 11:02:20;;;;;;;;;;;30.00;99.90;;;;;;5133822;27;19911;-75
2023/08/06 11:04:47;;;;;;;;;;;30.00;99.90;;;;;;5133184;28;19904;-75
2023/08/06 11:07:13;;;;;;;;;;;30.00;99.90;;;;;;5136127;27;19907;-75
2023/08/06 11:09:39;;;;;;;;;;;30.10;99.90;;;;;;5137689;27;19958;-76
2023/08/06 11:12:11;;;;;;;;;;;30.30;99.90;;;;;;5137001;27;19907;-74
2023/08/06 11:14:38;;;;;;;;;;;30.10;99.90;;;;;;5137309;27;19904;-75
2023/08/06 11:17:05;;;;;;;;;;;30.00;99.90;;;;;;5137039;27;20337;-75
2023/08/06 11:19:30;;;;;;;;;;;30.10;99.90;;;;;;5137068;27;19903;-74
2023/08/06 11:21:56;;;;;;;;;;;30.20;99.90;;;;;;5137191;27;19956;-75
2023/08/06 11:24:24;;;;;;;;;;;30.00;99.90;;;;;;5137078;27;19951;-74
2023/08/06 11:26:50;;;;;;;;;;;29.40;99.90;;;;;;5137361;27;19914;-76
2023/08/06 11:29:16;;;;;;;;;;;29.60;99.90;;;;;;5136920;27;19903;-75
2023/08/06 11:31:41;;;;;;;;;;;29.60;99.90;;;;;;5137151;27;19903;-75
2023/08/06 11:34:08;;;;;;;;;;;29.70;99.90;;;;;;5136888;27;19959;-75
2023/08/06 11:36:36;;;;;;;;;;;29.60;99.90;;;;;;5136179;27;19919;-75
2023/08/06 11:39:02;;;;;;;;;;;29.90;99.90;;;;;;5136963;27;19904;-75
2023/08/06 11:41:29;;;;;;;;;;;29.80;99.90;;;;;;5135156;27;20371;-75
2023/08/06 11:43:55;;;;;;;;;;;29.90;99.90;;;;;;5136546;27;19913;-76
2023/08/06 11:46:23;;;;;;;;;;;29.90;99.90;;;;;;5135258;27;19915;-75
2023/08/06 11:48:52;;;;;;;;;;;30.00;99.90;;;;;;5136547;27;20302;-75
2023/08/06 11:51:18;;;;;;;;;;;30.20;99.90;;;;;;5136697;27;20262;-75
2023/08/06 11:53:49;;;;;;;;;;;30.20;99.90;;;;;;5136436;27;19911;-75
2023/08/06 11:56:14;;;;;;;;;;;30.30;99.90;;;;;;5134656;27;19984;-75
2023/08/06 11:58:43;;;;;;;;;;;30.20;99.90;;;;;;5135005;27;19904;-75
2023/08/06 12:01:09;;;;;;;;;;;30.20;99.90;;;;;;5136206;27;19903;-76
2023/08/06 12:03:41;;;;;;;;;;;30.20;99.90;;;;;;5136242;27;19926;-76
2023/08/06 12:06:09;;;;;;;;;;;29.90;99.90;;;;;;5136022;27;19903;-75
2023/08/06 12:08:35;;;;;;;;;;;29.80;99.90;;;;;;5135935;27;19956;-74
2023/08/06 12:11:01;;;;;;;;;;;29.90;99.90;;;;;;5136033;27;19907;-76
2023/08/06 12:13:27;;;;;;;;;;;29.90;99.90;;;;;;5135895;27;19910;-75
2023/08/06 12:15:54;;;;;;;;;;;30.10;99.90;;;;;;5135905;27;19956;-76
2023/08/06 12:18:19;;;;;;;;;;;29.90;99.90;;;;;;5136118;27;19949;-75
2023/08/06 12:20:45;;;;;;;;;;;29.80;99.90;;;;;;5135851;27;19940;-75
2023/08/06 12:23:15;;;;;;;;;;;29.60;99.90;;;;;;5136264;27;19903;-75
2023/08/06 12:25:44;;;;;;;;;;;29.50;99.90;;;;;;5135844;27;20361;-77
2023/08/06 12:28:10;;;;;;;;;;;29.40;99.90;;;;;;5135691;27;19903;-75
2023/08/06 12:30:36;;;;;;;;;;;29.50;99.90;;;;;;5136191;27;19909;-75
2023/08/06 12:33:02;;;;;;;;;;;29.60;99.90;;;;;;5134369;27;19903;-75
2023/08/06 12:35:28;;;;;;;;;;;29.60;99.90;;;;;;5134352;27;20006;-76
2023/08/06 12:37:54;;;;;;;;;;;29.40;99.90;;;;;;5135358;27;19922;-75
2023/08/06 12:40:20;;;;;;;;;;;29.50;99.90;;;;;;5135568;27;19904;-76
2023/08/06 12:42:46;;;;;;;;;;;29.50;99.90;;;;;;5135379;27;20412;-75
2023/08/06 12:45:12;;;;;;;;;;;29.60;99.90;;;;;;5135746;27;19904;-75
2023/08/06 12:47:38;;;;;;;;;;;29.50;99.90;;;;;;5133875;27;19988;-76
2023/08/06 12:50:04;;;;;;;;;;;29.70;99.90;;;;;;5135676;27;19904;-75
2023/08/06 12:52:29;;;;;;;;;;;29.60;99.90;;;;;;5135916;27;19987;-75
2023/08/06 12:54:55;;;;;;;;;;;29.70;99.90;;;;;;5135562;27;19903;-75
2023/08/06 12:57:21;;;;;;;;;;;29.80;99.90;;;;;;5133590;27;19980;-74
2023/08/06 12:59:48;;;;;;;;;;;29.80;99.90;;;;;;5135179;27;19926;-76
2023/08/06 13:02:13;;;;;;;;;;;29.90;99.90;;;;;;5135032;27;20252;-76
2023/08/06 13:04:39;;;;;;;;;;;29.80;99.90;;;;;;5135490;27;19910;-74
2023/08/06 13:07:06;;;;;;;;;;;29.80;99.90;;;;;;5134772;27;19903;-76
2023/08/06 13:09:32;;;;;;;;;;;29.60;99.90;;;;;;5133577;27;19910;-76
2023/08/06 13:11:59;;;;;;;;;;;29.60;99.90;;;;;;5135355;27;20397;-75
2023/08/06 13:14:25;;;;;;;;;;;29.60;99.90;;;;;;5134890;27;19926;-75
2023/08/06 13:16:51;;;;;;;;;;;29.60;99.90;;;;;;5134700;27;20469;-73
2023/08/06 13:19:17;;;;;;;;;;;29.70;99.90;;;;;;5134713;27;19903;-75
2023/08/06 13:21:45;;;;;;;;;;;29.70;99.90;;;;;;5135109;27;20308;-74
2023/08/06 13:24:11;;;;;;;;;;;29.70;99.90;;;;;;5133131;27;19903;-75
2023/08/06 13:26:37;;;;;;;;;;;29.10;99.90;;;;;;5134335;27;20419;-72
2023/08/06 13:29:03;;;;;;;;;;;29.00;99.90;;;;;;5133984;27;19903;-74
2023/08/06 13:31:29;;;;;;;;;;;29.00;99.90;;;;;;5134401;27;20012;-75
2023/08/06 13:33:58;;;;;;;;;;;29.00;99.90;;;;;;5134856;27;19952;-73
2023/08/06 13:36:24;;;;;;;;;;;28.90;99.90;;;;;;5134261;27;19954;-74
2023/08/06 13:38:50;;;;;;;;;;;29.40;99.90;;;;;;5133217;27;20319;-75
2023/08/06 13:41:16;;;;;;;;;;;29.60;99.90;;;;;;5134449;27;20453;-74
2023/08/06 13:43:42;;;;;;;;;;;29.50;99.90;;;;;;5134312;27;19955;-75
2023/08/06 13:46:09;;;;;;;;;;;29.30;99.90;;;;;;5134123;27;20422;-74
2023/08/06 13:48:34;;;;;;;;;;;29.40;99.90;;;;;;5134238;27;19911;-74
2023/08/06 13:51:00;;;;;;;;;;;29.30;99.90;;;;;;5134337;27;19903;-74
2023/08/06 13:53:29;;;;;;;;;;;29.50;99.90;;;;;;5132611;27;19990;-74
2023/08/06 13:55:56;;;;;;;;;;;29.50;99.90;;;;;;5133920;27;19907;-75
2023/08/06 13:58:23;;;;;;;;;;;29.50;99.90;;;;;;5133747;27;19910;-74
2023/08/06 14:00:49;;;;;;;;;;;29.50;99.90;;;;;;5134391;27;19943;-75
2023/08/06 14:03:14;;;;;;;;;;;29.30;99.90;;;;;;5134161;27;19914;-73
2023/08/06 14:05:41;;;;;;;;;;;29.30;99.90;;;;;;5133876;27;19907;-74
2023/08/06 14:08:07;;;;;;;;;;;29.00;99.90;;;;;;5133903;27;19910;-74
2023/08/06 14:10:32;;;;;;;;;;;28.80;99.90;;;;;;5134008;27;19903;-74
2023/08/06 14:12:58;;;;;;;;;;;28.90;99.90;;;;;;5133686;27;19925;-75